createdAt,value
2022-10-10T00:01:16.864Z,5.62
2022-10-10T00:03:45.164Z,5.03
2022-10-10T00:06:14.143Z,4.53
2022-10-10T00:08:42.777Z,4.60
2022-10-10T00:11:10.991Z,5.25
2022-10-10T00:13:39.528Z,5.20
2022-10-10T00:16:07.372Z,4.75
2022-10-10T00:18:35.530Z,4.57
2022-10-10T00:21:04.167Z,5.07
2022-10-10T00:23:31.881Z,4.72
2022-10-10T00:26:00.062Z,5.28
2022-10-10T00:28:28.523Z,5.18
2022-10-10T00:30:56.353Z,5.90
2022-10-10T00:33:24.087Z,5.43
2022-10-10T00:35:51.739Z,5.07
2022-10-10T00:38:19.439Z,5.37
2022-10-10T00:40:53.523Z,5.57
2022-10-10T00:43:23.021Z,5.25
2022-10-10T00:45:51.807Z,5.30
2022-10-10T00:48:22.962Z,5.78
2022-10-10T00:51:00.176Z,4.90
2022-10-10T00:53:33.821Z,5.45
2022-10-10T00:56:03.090Z,5.50
2022-10-10T00:58:31.251Z,5.70
2022-10-10T01:00:59.057Z,6.00
2022-10-10T01:03:27.016Z,5.87
2022-10-10T01:05:54.823Z,5.85
2022-10-10T01:08:23.614Z,5.90
2022-10-10T01:11:12.321Z,5.40
2022-10-10T01:14:01.042Z,5.40
2022-10-10T01:16:34.531Z,5.03
2022-10-10T01:19:30.643Z,5.87
2022-10-10T01:22:19.161Z,4.90
2022-10-10T01:25:05.086Z,5.30
2022-10-10T01:28:08.098Z,5.07
2022-10-10T01:30:36.281Z,5.35
2022-10-10T01:33:16.594Z,5.10
2022-10-10T01:36:17.314Z,5.25
2022-10-10T01:38:53.666Z,6.30
2022-10-10T01:41:38.174Z,5.50
2022-10-10T01:44:05.874Z,5.32
2022-10-10T01:46:33.761Z,5.18
2022-10-10T01:49:03.103Z,4.68
2022-10-10T01:51:45.762Z,4.78
2022-10-10T01:54:33.611Z,5.32
2022-10-10T01:57:13.154Z,5.65
2022-10-10T01:59:59.595Z,5.55
2022-10-10T02:02:45.488Z,5.22
2022-10-10T02:05:30.819Z,5.30
2022-10-10T02:08:04.394Z,5.10
2022-10-10T02:10:36.723Z,5.40
2022-10-10T02:13:07.227Z,5.28
2022-10-10T02:15:51.473Z,5.07
2022-10-10T02:18:23.626Z,5.40
2022-10-10T02:20:54.222Z,5.53
2022-10-10T02:23:23.762Z,5.28
2022-10-10T02:25:54.374Z,5.07
2022-10-10T02:28:26.916Z,5.35
2022-10-10T02:30:58.830Z,5.53
2022-10-10T02:33:45.433Z,5.18
2022-10-10T02:36:15.498Z,4.60
2022-10-10T02:38:44.900Z,5.45
2022-10-10T02:41:15.929Z,5.40
2022-10-10T02:43:43.994Z,5.50
2022-10-10T02:46:14.808Z,5.03
2022-10-10T02:48:42.706Z,5.47
2022-10-10T02:51:11.848Z,5.80
2022-10-10T02:53:40.071Z,5.65
2022-10-10T02:56:07.933Z,4.72
2022-10-10T02:58:35.839Z,6.20
2022-10-10T03:01:03.549Z,6.35
2022-10-10T03:03:31.396Z,6.43
2022-10-10T03:05:59.096Z,6.12
2022-10-10T03:08:26.778Z,6.35
2022-10-10T03:11:02.375Z,5.47
2022-10-10T03:13:30.189Z,7.40
2022-10-10T03:15:58.016Z,6.32
2022-10-10T03:18:25.699Z,5.90
2022-10-10T03:20:57.685Z,6.22
2022-10-10T03:23:26.243Z,5.37
2022-10-10T03:25:54.302Z,6.40
2022-10-10T03:28:22.467Z,6.22
2022-10-10T03:30:50.323Z,6.28
2022-10-10T03:33:18.053Z,6.18
2022-10-10T03:35:45.712Z,6.00
2022-10-10T03:38:14.736Z,5.55
2022-10-10T03:40:44.734Z,6.18
2022-10-10T03:43:14.704Z,6.18
2022-10-10T03:45:47.083Z,5.87
2022-10-10T03:48:15.402Z,5.47
2022-10-10T03:50:43.185Z,5.35
2022-10-10T03:53:11.078Z,5.78
2022-10-10T03:55:41.640Z,5.82
2022-10-10T03:58:12.470Z,5.62
2022-10-10T04:00:40.269Z,6.05
2022-10-10T04:03:09.159Z,5.82
2022-10-10T04:05:38.967Z,5.72
2022-10-10T04:08:07.306Z,5.78
2022-10-10T04:10:35.023Z,5.78
2022-10-10T04:13:02.658Z,5.60
2022-10-10T04:15:31.614Z,5.75
2022-10-10T04:18:00.157Z,6.37
2022-10-10T04:20:27.886Z,6.87
2022-10-10T04:22:55.523Z,6.30
2022-10-10T04:25:23.322Z,6.60
2022-10-10T04:27:51.086Z,6.05
2022-10-10T04:30:19.848Z,7.55
2022-10-10T04:32:47.507Z,6.70
2022-10-10T04:35:15.362Z,6.90
2022-10-10T04:37:43.009Z,7.43
2022-10-10T04:40:11.186Z,7.15
2022-10-10T04:42:38.994Z,6.57
2022-10-10T04:45:08.288Z,7.05
2022-10-10T04:47:35.935Z,6.80
2022-10-10T04:50:03.582Z,7.10
2022-10-10T04:52:31.227Z,7.95
2022-10-10T04:54:58.879Z,7.18
2022-10-10T04:57:26.550Z,6.53
2022-10-10T04:59:54.225Z,6.43
2022-10-10T05:02:21.875Z,6.90
2022-10-10T05:04:50.156Z,7.12
2022-10-10T05:07:17.910Z,7.05
2022-10-10T05:09:45.529Z,6.60
2022-10-10T05:12:13.173Z,6.75
2022-10-10T05:14:45.843Z,6.53
2022-10-10T05:17:15.958Z,6.50
2022-10-10T05:19:43.709Z,7.03
2022-10-10T05:22:11.458Z,7.18
2022-10-10T05:24:39.148Z,7.53
2022-10-10T05:27:07.119Z,7.53
2022-10-10T05:29:34.738Z,7.43
2022-10-10T05:32:04.437Z,7.20
2022-10-10T05:34:35.388Z,7.37
2022-10-10T05:37:03.110Z,7.90
2022-10-10T05:39:30.864Z,7.93
2022-10-10T05:41:58.491Z,7.68
2022-10-10T05:44:26.320Z,7.25
2022-10-10T05:46:54.333Z,7.37
2022-10-10T05:49:22.379Z,7.93
2022-10-10T05:51:50.469Z,7.85
2022-10-10T05:54:18.289Z,7.55
2022-10-10T05:56:46.002Z,8.02
2022-10-10T05:59:13.593Z,7.22
2022-10-10T06:01:41.474Z,7.43
2022-10-10T06:04:09.752Z,7.15
2022-10-10T06:06:37.444Z,7.43
2022-10-10T06:09:05.075Z,8.18
2022-10-10T06:11:32.846Z,7.37
2022-10-10T06:14:00.500Z,7.65
2022-10-10T06:16:29.179Z,6.57
2022-10-10T06:18:59.852Z,7.28
2022-10-10T06:21:27.765Z,8.07
2022-10-10T06:23:55.493Z,8.45
2022-10-10T06:26:23.333Z,7.25
2022-10-10T06:28:53.817Z,8.05
2022-10-10T06:31:21.501Z,8.23
2022-10-10T06:33:50.272Z,8.50
2022-10-10T06:36:18.164Z,8.55
2022-10-10T06:38:47.150Z,10.00
2022-10-10T06:41:14.950Z,8.15
2022-10-10T06:43:42.724Z,7.85
2022-10-10T06:46:11.328Z,8.70
2022-10-10T06:48:39.148Z,8.00
2022-10-10T06:51:10.352Z,8.13
2022-10-10T06:53:38.041Z,7.22
2022-10-10T06:56:05.952Z,7.57
2022-10-10T06:58:34.567Z,7.37
2022-10-10T07:01:05.781Z,7.72
2022-10-10T07:03:33.539Z,7.78
2022-10-10T07:06:02.776Z,7.57
2022-10-10T07:08:31.669Z,7.15
2022-10-10T07:10:59.349Z,8.45
2022-10-10T07:13:27.045Z,8.18
2022-10-10T07:15:54.812Z,13.30
2022-10-10T07:18:23.153Z,8.32
2022-10-10T07:20:50.916Z,7.20
2022-10-10T07:23:19.098Z,8.18
2022-10-10T07:25:46.730Z,7.60
2022-10-10T07:28:14.695Z,8.07
2022-10-10T07:30:44.895Z,8.10
2022-10-10T07:33:14.355Z,8.05
2022-10-10T07:35:42.358Z,8.90
2022-10-10T07:38:12.342Z,8.57
2022-10-10T07:40:43.144Z,8.15
2022-10-10T07:43:11.015Z,8.38
2022-10-10T07:45:38.702Z,8.05
2022-10-10T07:48:06.604Z,7.40
2022-10-10T07:50:34.185Z,8.35
2022-10-10T07:53:04.255Z,7.82
2022-10-10T07:55:31.869Z,8.45
2022-10-10T07:58:00.645Z,8.23
2022-10-10T08:00:28.547Z,8.70
2022-10-10T08:02:56.329Z,8.38
2022-10-10T08:05:24.057Z,8.77
2022-10-10T08:07:52.000Z,7.07
2022-10-10T08:10:19.952Z,7.75
2022-10-10T08:12:47.638Z,7.97
2022-10-10T08:15:15.310Z,8.65
2022-10-10T08:17:42.949Z,8.88
2022-10-10T08:20:11.579Z,8.43
2022-10-10T08:22:39.248Z,8.43
2022-10-10T08:25:07.510Z,8.40
2022-10-10T08:27:35.197Z,8.98
2022-10-10T08:30:02.937Z,8.77
2022-10-10T08:32:30.607Z,9.27
2022-10-10T08:34:58.209Z,9.05
2022-10-10T08:37:30.416Z,8.38
2022-10-10T08:40:00.295Z,8.50
2022-10-10T08:42:39.602Z,9.80
2022-10-10T08:45:16.815Z,9.48
2022-10-10T08:48:16.194Z,8.38
2022-10-10T08:50:49.585Z,8.90
2022-10-10T08:53:36.050Z,9.02
2022-10-10T08:56:07.013Z,8.38
2022-10-10T08:58:43.394Z,9.60
2022-10-10T09:01:23.862Z,10.30
2022-10-10T09:04:00.358Z,8.70
2022-10-10T09:06:58.539Z,9.75
2022-10-10T09:09:31.808Z,8.70
2022-10-10T09:12:08.399Z,8.73
2022-10-10T09:15:04.778Z,8.15
2022-10-10T09:18:09.813Z,9.50
2022-10-10T09:21:04.878Z,8.85
2022-10-10T09:23:42.106Z,8.38
2022-10-10T09:26:18.793Z,9.05
2022-10-10T09:28:56.921Z,8.10
2022-10-10T09:31:32.974Z,8.90
2022-10-10T09:34:24.035Z,9.43
2022-10-10T09:36:55.075Z,8.13
2022-10-10T09:40:04.153Z,8.18
2022-10-10T09:42:40.318Z,8.50
2022-10-10T09:45:21.343Z,8.52
2022-10-10T09:47:52.384Z,8.23
2022-10-10T09:50:20.134Z,8.13
2022-10-10T09:52:48.686Z,8.85
2022-10-10T09:55:30.155Z,8.07
2022-10-10T09:58:04.179Z,8.82
2022-10-10T10:00:37.596Z,8.35
2022-10-10T10:03:14.354Z,7.55
2022-10-10T10:05:46.406Z,7.45
2022-10-10T10:08:49.847Z,7.10
2022-10-10T10:11:32.782Z,7.60
2022-10-10T10:14:03.388Z,7.07
2022-10-10T10:16:32.610Z,7.50
2022-10-10T10:19:00.611Z,7.60
2022-10-10T10:21:28.798Z,7.55
2022-10-10T10:24:04.465Z,9.10
2022-10-10T10:26:45.610Z,7.87
2022-10-10T10:29:28.777Z,7.50
2022-10-10T10:32:05.353Z,6.85
2022-10-10T10:34:38.556Z,8.15
2022-10-10T10:37:25.016Z,7.82
2022-10-10T10:40:15.959Z,8.23
2022-10-10T10:43:13.956Z,7.68
2022-10-10T10:46:04.171Z,8.13
2022-10-10T10:48:37.475Z,8.30
2022-10-10T10:51:26.455Z,8.35
2022-10-10T10:54:35.294Z,8.60
2022-10-10T10:57:36.986Z,7.95
2022-10-10T11:00:47.206Z,7.28
2022-10-10T11:04:16.087Z,9.00
2022-10-10T11:06:27.731Z,9.27
2022-10-10T11:09:06.337Z,8.15
2022-10-10T11:11:52.406Z,8.15
2022-10-10T11:14:25.779Z,8.00
2022-10-10T11:17:02.286Z,8.45
2022-10-10T11:19:44.072Z,7.90
2022-10-10T11:22:23.333Z,8.70
2022-10-10T11:25:04.306Z,7.00
2022-10-10T11:27:48.599Z,7.18
2022-10-10T11:30:24.525Z,7.68
2022-10-10T11:33:03.949Z,7.82
2022-10-10T11:35:37.681Z,7.72
2022-10-10T11:38:14.467Z,6.70
2022-10-10T11:40:56.138Z,11.00
2022-10-10T11:43:49.672Z,8.10
2022-10-10T11:46:24.429Z,7.12
2022-10-10T11:49:13.458Z,7.10
2022-10-10T11:52:21.539Z,7.35
2022-10-10T11:55:11.467Z,7.30
2022-10-10T11:57:54.746Z,6.18
2022-10-10T12:00:23.027Z,6.87
2022-10-10T12:02:51.036Z,7.12
2022-10-10T12:05:18.649Z,6.53
2022-10-10T12:08:17.969Z,7.62
2022-10-10T12:10:53.417Z,7.25
2022-10-10T12:13:50.191Z,7.00
2022-10-10T12:16:24.815Z,7.72
2022-10-10T12:19:03.675Z,7.20
2022-10-10T12:21:32.633Z,7.12
2022-10-10T12:24:13.920Z,6.75
2022-10-10T12:26:53.720Z,6.85
2022-10-10T12:29:41.595Z,7.20
2022-10-10T12:32:15.344Z,6.57
2022-10-10T12:34:48.940Z,6.65
2022-10-10T12:37:32.738Z,6.75
2022-10-10T12:40:21.987Z,6.40
2022-10-10T12:42:49.576Z,6.45
2022-10-10T12:45:32.378Z,5.72
2022-10-10T12:48:18.376Z,6.28
2022-10-10T12:51:01.779Z,6.15
2022-10-10T12:53:32.703Z,6.78
2022-10-10T12:56:03.120Z,6.97
2022-10-10T12:58:39.387Z,6.62
2022-10-10T13:01:23.211Z,6.05
2022-10-10T13:03:53.137Z,7.15
2022-10-10T13:06:40.435Z,6.80
2022-10-10T13:09:35.177Z,7.07
2022-10-10T13:12:06.398Z,6.72
2022-10-10T13:14:46.475Z,7.15
2022-10-10T13:17:37.578Z,6.12
2022-10-10T13:20:07.182Z,6.43
2022-10-10T13:22:37.709Z,6.70
2022-10-10T13:25:11.086Z,6.85
2022-10-10T13:27:38.971Z,7.37
2022-10-10T13:30:08.295Z,7.00
2022-10-10T13:32:37.177Z,7.72
2022-10-10T13:35:18.425Z,7.28
2022-10-10T13:37:48.561Z,7.35
2022-10-10T13:40:17.721Z,7.40
2022-10-10T13:42:49.512Z,6.68
2022-10-10T13:45:30.172Z,6.87
2022-10-10T13:48:03.909Z,7.78
2022-10-10T13:50:37.089Z,7.90
2022-10-10T13:53:25.520Z,7.47
2022-10-10T13:56:26.429Z,8.10
2022-10-10T13:59:02.933Z,7.20
2022-10-10T14:01:35.458Z,7.15
2022-10-10T14:04:09.053Z,7.62
2022-10-10T14:06:37.352Z,7.05
2022-10-10T14:09:15.039Z,7.53
2022-10-10T14:11:44.693Z,7.35
2022-10-10T14:14:23.276Z,7.50
2022-10-10T14:17:04.737Z,7.45
2022-10-10T14:19:34.311Z,6.72
2022-10-10T14:22:02.090Z,7.55
2022-10-10T14:24:29.778Z,6.35
2022-10-10T14:26:57.433Z,6.87
2022-10-10T14:29:25.272Z,7.00
2022-10-10T14:31:52.892Z,6.82
2022-10-10T14:34:20.597Z,6.95
2022-10-10T14:36:51.454Z,7.32
2022-10-10T14:39:20.697Z,7.25
2022-10-10T14:41:48.569Z,6.55
2022-10-10T14:44:16.463Z,6.78
2022-10-10T14:46:44.560Z,6.22
2022-10-10T14:49:21.187Z,6.80
2022-10-10T14:51:49.425Z,5.75
2022-10-10T14:54:17.123Z,6.68
2022-10-10T14:57:07.043Z,6.43
2022-10-10T14:59:46.409Z,6.57
2022-10-10T15:02:19.028Z,6.43
2022-10-10T15:04:46.769Z,6.70
2022-10-10T15:07:15.442Z,5.87
2022-10-10T15:10:11.217Z,6.55
2022-10-10T15:12:41.471Z,6.32
2022-10-10T15:15:10.050Z,5.80
2022-10-10T15:17:37.838Z,5.62
2022-10-10T15:20:08.461Z,5.65
2022-10-10T15:22:37.102Z,5.57
2022-10-10T15:25:06.019Z,5.32
2022-10-10T15:27:33.979Z,5.72
2022-10-10T15:30:01.933Z,5.70
2022-10-10T15:32:29.592Z,4.68
2022-10-10T15:34:57.418Z,4.97
2022-10-10T15:37:27.454Z,5.10
2022-10-10T15:39:55.419Z,5.12
2022-10-10T15:42:23.706Z,5.12
2022-10-10T15:44:52.392Z,5.03
2022-10-10T15:47:21.248Z,5.82
2022-10-10T15:49:50.038Z,4.68
2022-10-10T15:52:18.948Z,5.07
2022-10-10T15:54:49.951Z,4.62
2022-10-10T15:57:19.193Z,4.68
2022-10-10T15:59:47.675Z,4.60
2022-10-10T16:02:15.962Z,4.85
2022-10-10T16:04:44.048Z,4.80
2022-10-10T16:07:25.936Z,4.53
2022-10-10T16:09:57.239Z,4.75
2022-10-10T16:12:24.883Z,4.25
2022-10-10T16:14:52.515Z,3.90
2022-10-10T16:17:23.306Z,4.25
2022-10-10T16:19:51.645Z,3.92
2022-10-10T16:22:19.243Z,3.75
2022-10-10T16:24:58.443Z,3.78
2022-10-10T16:27:36.916Z,4.15
2022-10-10T16:30:05.126Z,3.83
2022-10-10T16:32:36.903Z,3.33
2022-10-10T16:35:09.124Z,3.30
2022-10-10T16:37:36.766Z,3.20
2022-10-10T16:40:05.250Z,3.70
2022-10-10T16:42:32.881Z,3.45
2022-10-10T16:45:00.573Z,4.10
2022-10-10T16:47:28.231Z,3.47
2022-10-10T16:49:55.931Z,3.75
2022-10-10T16:52:23.616Z,3.85
2022-10-10T16:54:52.330Z,3.60
2022-10-10T16:57:20.671Z,4.10
2022-10-10T16:59:48.396Z,3.67
2022-10-10T17:02:16.041Z,3.87
2022-10-10T17:04:43.681Z,4.40
2022-10-10T17:07:11.400Z,4.43
2022-10-10T17:09:39.047Z,3.92
2022-10-10T17:12:06.793Z,4.07
2022-10-10T17:14:34.492Z,4.60
2022-10-10T17:17:17.478Z,4.20
2022-10-10T17:19:45.223Z,4.70
2022-10-10T17:22:12.847Z,4.95
2022-10-10T17:24:40.500Z,5.05
2022-10-10T17:27:08.273Z,5.70
2022-10-10T17:29:36.012Z,4.95
2022-10-10T17:32:06.584Z,4.85
2022-10-10T17:34:34.636Z,5.68
2022-10-10T17:37:02.462Z,5.53
2022-10-10T17:39:31.056Z,5.40
2022-10-10T17:41:58.774Z,5.50
2022-10-10T17:44:26.667Z,5.78
2022-10-10T17:46:54.434Z,7.45
2022-10-10T17:49:22.156Z,6.70
2022-10-10T17:51:50.084Z,6.30
2022-10-10T17:54:17.786Z,6.03
2022-10-10T17:56:48.213Z,7.07
2022-10-10T17:59:15.928Z,6.60
2022-10-10T18:01:43.628Z,6.80
2022-10-10T18:04:15.132Z,6.37
2022-10-10T18:06:42.788Z,7.22
2022-10-10T18:09:10.813Z,6.43
2022-10-10T18:11:38.437Z,6.60
2022-10-10T18:14:06.179Z,6.53
2022-10-10T18:16:35.984Z,6.72
2022-10-10T18:19:06.249Z,6.68
2022-10-10T18:21:34.758Z,6.32
2022-10-10T18:24:02.710Z,6.82
2022-10-10T18:26:31.512Z,6.40
2022-10-10T18:28:59.768Z,6.18
2022-10-10T18:31:30.625Z,6.62
2022-10-10T18:33:58.591Z,6.87
2022-10-10T18:36:29.910Z,6.53
2022-10-10T18:39:02.976Z,6.70
2022-10-10T18:41:35.116Z,6.72
2022-10-10T18:44:12.042Z,6.75
2022-10-10T18:46:40.487Z,6.72
2022-10-10T18:49:10.192Z,7.18
2022-10-10T18:51:40.981Z,6.62
2022-10-10T18:54:10.018Z,6.78
2022-10-10T18:56:39.695Z,7.05
2022-10-10T18:59:11.402Z,7.07
2022-10-10T19:01:41.007Z,6.87
2022-10-10T19:04:10.752Z,6.90
2022-10-10T19:06:40.259Z,6.95
2022-10-10T19:09:11.273Z,7.03
2022-10-10T19:11:41.453Z,6.60
2022-10-10T19:14:12.325Z,6.22
2022-10-10T19:16:41.892Z,7.05
2022-10-10T19:19:11.999Z,6.87
2022-10-10T19:21:40.136Z,6.65
2022-10-10T19:24:10.001Z,7.05
2022-10-10T19:26:37.851Z,8.45
2022-10-10T19:29:08.758Z,7.57
2022-10-10T19:31:41.202Z,8.10
2022-10-10T19:34:08.861Z,7.75
2022-10-10T19:36:38.578Z,9.07
2022-10-10T19:39:10.122Z,8.20
2022-10-10T19:41:37.834Z,7.93
2022-10-10T19:44:06.846Z,8.25
2022-10-10T19:46:37.205Z,10.50
2022-10-10T19:49:05.418Z,9.82
2022-10-10T19:51:33.279Z,11.05
2022-10-10T19:54:00.924Z,10.88
2022-10-10T19:56:28.992Z,10.45
2022-10-10T19:58:58.879Z,11.52
2022-10-10T20:01:29.841Z,10.70
2022-10-10T20:03:58.945Z,10.88
2022-10-10T20:06:27.584Z,10.77
2022-10-10T20:08:55.718Z,10.07
2022-10-10T20:11:24.349Z,10.95
2022-10-10T20:13:56.494Z,10.63
2022-10-10T20:16:27.141Z,9.35
2022-10-10T20:18:55.842Z,10.45
2022-10-10T20:21:30.391Z,10.25
2022-10-10T20:24:00.143Z,8.60
2022-10-10T20:26:28.566Z,10.40
2022-10-10T20:28:57.932Z,9.02
2022-10-10T20:31:31.868Z,9.70
2022-10-10T20:34:03.950Z,9.32
2022-10-10T20:36:33.527Z,9.68
2022-10-10T20:39:08.896Z,10.07
2022-10-10T20:41:38.859Z,10.63
2022-10-10T20:44:08.498Z,9.30
2022-10-10T20:46:38.962Z,9.20
2022-10-10T20:49:09.328Z,9.20
2022-10-10T20:51:37.173Z,8.77
2022-10-10T20:54:06.917Z,8.45
2022-10-10T20:56:36.365Z,8.68
2022-10-10T20:59:04.129Z,7.90
2022-10-10T21:01:32.412Z,8.52
2022-10-10T21:04:00.602Z,8.55
2022-10-10T21:06:33.640Z,9.50
2022-10-10T21:09:03.265Z,9.55
2022-10-10T21:11:31.071Z,9.82
2022-10-10T21:14:00.655Z,9.18
2022-10-10T21:16:31.574Z,9.55
2022-10-10T21:18:59.495Z,7.87
2022-10-10T21:21:30.791Z,8.70
2022-10-10T21:23:58.852Z,8.75
2022-10-10T21:26:29.132Z,7.53
2022-10-10T21:28:58.551Z,7.35
2022-10-10T21:31:28.966Z,8.20
2022-10-10T21:33:57.594Z,8.63
2022-10-10T21:36:26.822Z,9.40
2022-10-10T21:38:57.084Z,9.27
2022-10-10T21:41:25.733Z,8.00
2022-10-10T21:43:58.300Z,6.37
2022-10-10T21:46:35.591Z,6.50
2022-10-10T21:49:07.673Z,6.30
2022-10-10T21:51:41.130Z,6.78
2022-10-10T21:54:09.933Z,6.65
2022-10-10T21:56:38.134Z,6.93
2022-10-10T21:59:06.688Z,6.57
2022-10-10T22:01:34.663Z,6.53
2022-10-10T22:04:03.821Z,6.07
2022-10-10T22:06:31.970Z,5.65
2022-10-10T22:09:01.438Z,6.40
2022-10-10T22:11:30.978Z,6.97
2022-10-10T22:13:59.062Z,6.20
2022-10-10T22:16:26.768Z,6.40
2022-10-10T22:18:57.745Z,6.40
2022-10-10T22:21:30.364Z,5.90
2022-10-10T22:23:59.811Z,6.10
2022-10-10T22:26:27.523Z,6.62
2022-10-10T22:28:55.309Z,5.90
2022-10-10T22:31:23.019Z,5.62
2022-10-10T22:33:50.763Z,5.53
2022-10-10T22:36:18.423Z,7.03
2022-10-10T22:38:46.584Z,6.30
2022-10-10T22:41:15.192Z,6.15
2022-10-10T22:43:42.939Z,5.60
2022-10-10T22:46:10.618Z,5.53
2022-10-10T22:48:38.460Z,5.32
2022-10-10T22:51:14.536Z,5.05
2022-10-10T22:53:43.536Z,5.60
2022-10-10T22:56:16.388Z,5.10
2022-10-10T22:58:44.560Z,5.40
2022-10-10T23:01:20.090Z,5.65
2022-10-10T23:03:48.338Z,4.68
2022-10-10T23:06:16.516Z,4.78
2022-10-10T23:08:44.171Z,5.85
2022-10-10T23:11:11.815Z,4.78
2022-10-10T23:13:39.419Z,5.10
2022-10-10T23:16:07.830Z,6.40
2022-10-10T23:18:35.839Z,6.22
2022-10-10T23:21:03.706Z,6.43
2022-10-10T23:23:31.294Z,7.12
2022-10-10T23:25:59.061Z,6.82
2022-10-10T23:28:26.761Z,8.02
2022-10-10T23:30:54.391Z,8.00
2022-10-10T23:33:21.998Z,9.88
2022-10-10T23:36:01.560Z,7.78
2022-10-10T23:38:30.160Z,9.65
2022-10-10T23:40:58.351Z,8.18
2022-10-10T23:43:26.071Z,9.07
2022-10-10T23:45:54.251Z,7.35
2022-10-10T23:48:21.893Z,9.10
2022-10-10T23:50:49.625Z,8.82
2022-10-10T23:53:17.255Z,9.07
2022-10-10T23:55:44.911Z,9.95
2022-10-10T23:58:12.567Z,10.63
